Time;durP1;ratioP1;P1;durP2;ratioP2;P2;SDS_P1;SDS_P2;PMS_P1;PMS_P2;Temp;Humidity;BMP_temperature;BMP_pressure;BME280_temperature;BME280_humidity;BME280_pressure;Samples;Min_cycle;Max_cycle;Signal;HPM_P1;HPM_P2
2021/08/27 00:00:48;;;;;;;5.55;3.97;;;;;;;19.39;59.81;99389.16;4363230;32;34079;-93
2021/08/27 00:03:56;;;;;;;8.32;4.93;;;;;;;19.41;60.03;99386.44;4350914;32;34266;-92
2021/08/27 00:06:24;;;;;;;8.43;4.60;;;;;;;19.34;60.46;99367.38;4338690;32;33666;-92
2021/08/27 00:09:29;;;;;;;7.28;4.35;;;;;;;19.24;60.51;99355.47;4350792;32;33111;-93
2021/08/27 00:12:18;;;;;;;6.70;4.40;;;;;;;19.13;60.79;99335.78;4360927;32;33333;-93
2021/08/27 00:15:18;;;;;;;6.75;4.57;;;;;;;19.25;60.48;99325.56;4375854;32;34516;-93
2021/08/27 00:18:07;;;;;;;7.53;4.90;;;;;;;19.35;60.79;99326.88;4366590;32;33521;-93
2021/08/27 00:21:02;;;;;;;7.05;5.00;;;;;;;19.27;61.24;99342.19;4349347;32;33485;-94
2021/08/27 00:23:42;;;;;;;8.93;4.93;;;;;;;19.06;61.90;99356.25;4365159;32;33526;-94
2021/08/27 00:26:36;;;;;;;8.50;5.15;;;;;;;19.09;61.91;99355.28;4376670;32;33444;-95
2021/08/27 00:29:18;;;;;;;11.70;4.78;;;;;;;18.93;62.01;99365.56;4391402;32;33384;-94
2021/08/27 00:31:59;;;;;;;8.27;4.75;;;;;;;18.85;62.16;99357.97;4375687;32;33224;-94
2021/08/27 00:34:41;;;;;;;7.35;4.55;;;;;;;19.07;61.76;99365.00;4369617;32;34163;-94
2021/08/27 00:37:23;;;;;;;8.45;5.10;;;;;;;19.14;61.61;99359.41;4393511;32;33973;-94
2021/08/27 00:40:20;;;;;;;6.95;4.65;;;;;;;19.01;61.84;99358.22;4390675;32;34399;-93
2021/08/27 00:43:00;;;;;;;9.07;4.97;;;;;;;19.04;61.72;99352.81;4371196;32;33011;-94
2021/08/27 00:45:44;;;;;;;6.72;4.62;;;;;;;19.04;61.84;99342.25;4380411;32;34178;-94
2021/08/27 00:48:26;;;;;;;7.78;4.90;;;;;;;18.88;62.21;99346.47;4364863;32;33915;-94
2021/08/27 00:51:24;;;;;;;7.40;4.68;;;;;;;18.91;62.39;99346.34;4388374;32;33732;-93
2021/08/27 00:54:07;;;;;;;7.45;4.75;;;;;;;19.04;61.78;99342.25;4375983;32;33944;-92
2021/08/27 00:56:44;;;;;;;7.78;4.80;;;;;;;18.92;61.77;99337.53;4378508;32;33510;-94
2021/08/27 00:59:27;;;;;;;9.15;4.90;;;;;;;18.95;62.06;99340.00;4363909;32;33623;-93
2021/08/27 01:02:23;;;;;;;7.03;4.78;;;;;;;18.98;61.77;99337.25;4389541;32;33251;-94
2021/08/27 01:05:09;;;;;;;7.53;4.60;;;;;;;18.70;62.33;99332.28;4376154;32;33172;-94
2021/08/27 01:08:39;;;;;;;7.93;4.07;;;;;;;18.69;62.50;99349.00;4379711;32;33698;-94
2021/08/27 01:11:46;;;;;;;8.05;4.85;;;;;;;18.64;62.76;99357.97;4350802;32;34136;-93
2021/08/27 01:14:43;;;;;;;8.73;4.72;;;;;;;18.70;62.56;99353.34;4359867;32;33585;-93
2021/08/27 01:17:35;;;;;;;6.43;4.65;;;;;;;18.68;62.31;99352.56;4403596;32;33052;-93
2021/08/27 01:20:53;;;;;;;6.87;4.95;;;;;;;18.54;62.57;99354.84;4394975;32;33863;-93
2021/08/27 01:23:40;;;;;;;8.10;4.57;;;;;;;18.62;62.41;99351.91;4357358;32;33915;-92
2021/08/27 01:26:13;;;;;;;9.52;4.87;;;;;;;18.55;62.68;99347.81;4382577;32;33609;-93
2021/08/27 01:28:59;;;;;;;7.12;4.85;;;;;;;18.55;62.42;99335.50;4405155;32;33052;-94
2021/08/27 01:31:46;;;;;;;9.80;4.78;;;;;;;18.55;62.27;99332.00;4345575;32;32983;-94
2021/08/27 01:34:39;;;;;;;7.93;4.22;;;;;;;18.50;62.63;99334.84;4392674;32;34820;-94
2021/08/27 01:37:52;;;;;;;7.22;4.65;;;;;;;18.02;63.85;99337.53;4354670;32;34915;-95
2021/08/27 01:40:39;;;;;;;;;;;;;;;17.82;64.46;99329.53;4362269;32;32742;-94
2021/08/27 01:43:40;;;;;;;9.02;4.70;;;;;;;17.94;64.32;99333.50;4355980;32;34460;-94
2021/08/27 01:46:24;;;;;;;8.13;4.28;;;;;;;17.74;64.94;99320.19;4393074;32;34581;-94
2021/08/27 01:49:18;;;;;;;6.28;4.25;;;;;;;17.81;64.94;99327.81;4382613;32;33998;-94
2021/08/27 01:52:03;;;;;;;8.25;5.00;;;;;;;17.84;65.03;99332.97;4387282;32;33946;-95
2021/08/27 01:55:04;;;;;;;7.07;4.68;;;;;;;17.96;64.61;99332.53;4377283;32;35035;-96
2021/08/27 01:57:45;;;;;;;7.13;4.70;;;;;;;18.03;64.37;99333.13;4401606;32;33762;-95
2021/08/27 02:00:28;;;;;;;8.90;4.70;;;;;;;18.09;63.96;99338.19;4389950;32;33734;-95
2021/08/27 02:03:30;;;;;;;8.23;4.43;;;;;;;17.98;64.41;99335.09;4347808;32;33086;-95
2021/08/27 02:06:29;;;;;;;7.40;3.95;;;;;;;17.96;64.70;99345.69;4382780;32;34594;-94
2021/08/27 02:09:12;;;;;;;8.07;4.93;;;;;;;18.03;64.42;99344.53;4353817;32;33804;-95
2021/08/27 02:11:54;;;;;;;10.00;4.32;;;;;;;18.05;64.45;99349.72;4367356;32;33735;-95
2021/08/27 02:14:52;;;;;;;7.22;4.60;;;;;;;17.87;65.02;99353.91;4360336;32;32947;-94
2021/08/27 02:17:35;;;;;;;7.62;5.12;;;;;;;17.77;65.13;99347.25;4413829;32;34481;-94
2021/08/27 02:20:28;;;;;;;5.97;4.07;;;;;;;17.94;64.71;99344.87;4383023;32;34245;-94
2021/08/27 02:23:10;;;;;;;7.93;4.53;;;;;;;17.95;64.94;99346.56;4388370;32;34449;-95
2021/08/27 02:25:53;;;;;;;8.88;4.80;;;;;;;18.11;64.51;99331.91;4391215;32;33159;-95
2021/08/27 02:28:48;;;;;;;8.63;5.05;;;;;;;17.94;64.82;99334.34;4374313;32;33875;-94
2021/08/27 02:31:29;;;;;;;7.65;4.78;;;;;;;17.90;65.13;99331.91;4355877;32;33917;-96
2021/08/27 02:34:13;;;;;;;8.73;4.82;;;;;;;17.91;65.12;99330.97;4375316;32;34509;-95
2021/08/27 02:37:10;;;;;;;7.72;4.85;;;;;;;18.06;64.50;99325.13;4362289;32;33105;-95
2021/08/27 02:39:50;;;;;;;8.55;5.43;;;;;;;18.13;64.43;99314.31;4363140;32;33669;-94
2021/08/27 02:42:44;;;;;;;7.97;4.70;;;;;;;18.09;64.52;99315.34;4352980;32;33790;-95
2021/08/27 02:45:26;;;;;;;8.48;5.68;;;;;;;18.05;64.59;99311.12;4396682;32;34720;-94
2021/08/27 02:48:09;;;;;;;10.70;5.00;;;;;;;17.89;65.02;99311.75;4396838;32;33791;-94
2021/08/27 02:51:13;;;;;;;8.60;5.40;;;;;;;18.04;64.76;99313.81;4397247;32;33984;-94
2021/08/27 02:53:57;;;;;;;6.53;5.10;;;;;;;18.02;64.78;99313.84;4343473;32;34198;-94
2021/08/27 02:56:52;;;;;;;8.90;5.37;;;;;;;17.99;64.89;99315.75;4389961;32;34266;-96
2021/08/27 02:59:35;;;;;;;8.93;5.80;;;;;;;17.97;64.29;99309.72;4388102;32;33052;-94
2021/08/27 03:02:17;;;;;;;10.27;6.03;;;;;;;18.04;64.52;99311.19;4364735;32;33453;-94
2021/08/27 03:05:15;;;;;;;8.35;5.53;;;;;;;17.99;64.72;99321.03;4391527;32;33970;-94
2021/08/27 03:08:01;;;;;;;8.50;5.62;;;;;;;18.04;64.58;99325.19;4388212;32;33403;-94
2021/08/27 03:11:16;;;;;;;7.47;5.03;;;;;;;17.89;65.11;99327.53;4370293;32;33219;-94
2021/08/27 03:14:10;;;;;;;9.45;5.03;;;;;;;18.02;64.82;99331.41;4355236;32;34038;-95
2021/08/27 03:17:14;;;;;;;9.60;5.55;;;;;;;18.03;64.59;99331.37;4359261;32;35137;-95
2021/08/27 03:20:19;;;;;;;9.35;5.37;;;;;;;17.94;64.67;99333.50;4376844;32;34102;-95
2021/08/27 03:23:15;;;;;;;8.20;5.68;;;;;;;17.82;65.04;99344.47;4387915;32;33288;-94
2021/08/27 03:26:04;;;;;;;12.48;5.75;;;;;;;17.86;65.04;99346.91;4364660;32;33907;-94
2021/08/27 03:28:59;;;;;;;8.13;5.15;;;;;;;17.86;64.97;99335.53;4359337;32;35105;-95
2021/08/27 03:31:33;;;;;;;8.05;5.10;;;;;;;17.89;64.86;99336.28;4363732;32;34279;-94
2021/08/27 03:34:16;;;;;;;8.00;4.97;;;;;;;17.93;64.53;99343.16;4407477;32;33167;-95
2021/08/27 03:37:13;;;;;;;7.20;5.15;;;;;;;17.93;64.46;99345.78;4361327;32;33405;-95
2021/08/27 03:39:55;;;;;;;6.47;4.72;;;;;;;17.84;64.70;99355.78;4387644;32;34039;-94
2021/08/27 03:42:38;;;;;;;8.35;5.28;;;;;;;18.08;64.07;99347.84;4413018;32;33678;-94
2021/08/27 03:45:23;;;;;;;7.50;4.70;;;;;;;17.93;64.37;99353.66;4394536;32;33143;-94
2021/08/27 03:48:20;;;;;;;7.95;5.25;;;;;;;17.80;64.60;99364.72;4367045;32;33475;-94
2021/08/27 03:51:03;;;;;;;9.80;5.50;;;;;;;17.84;64.57;99369.81;4394134;32;35076;-95
2021/08/27 03:53:46;;;;;;;8.20;5.15;;;;;;;17.94;64.05;99373.81;4378711;32;34225;-94
2021/08/27 03:56:39;;;;;;;6.43;4.80;;;;;;;18.03;63.80;99365.59;4411584;32;33302;-96
2021/08/27 03:59:22;;;;;;;7.47;5.12;;;;;;;18.14;63.45;99366.03;4361876;32;33699;-95
2021/08/27 04:02:06;;;;;;;7.18;5.05;;;;;;;18.09;63.42;99370.59;4384567;32;34384;-95
2021/08/27 04:05:08;;;;;;;7.30;5.12;;;;;;;17.98;63.52;99378.03;4337529;33;33566;-94
2021/08/27 04:07:50;;;;;;;8.77;5.07;;;;;;;17.93;63.62;99377.34;4389083;32;34065;-95
2021/08/27 04:10:34;;;;;;;8.30;4.82;;;;;;;17.96;63.65;99385.13;4383036;32;34359;-94
2021/08/27 04:13:31;;;;;;;7.62;4.93;;;;;;;18.05;63.61;99397.09;4372898;32;34638;-93
2021/08/27 04:16:13;;;;;;;9.55;5.00;;;;;;;18.04;63.51;99404.13;4399628;32;33673;-95
2021/08/27 04:19:12;;;;;;;8.75;5.90;;;;;;;18.05;63.48;99392.69;4330863;32;33620;-94
2021/08/27 04:21:52;;;;;;;10.15;5.62;;;;;;;18.04;63.38;99388.34;4364011;32;33747;-95
2021/08/27 04:24:35;;;;;;;9.23;5.35;;;;;;;18.04;62.47;99388.34;4392852;32;20145;-94
2021/08/27 04:27:32;;;;;;;9.65;5.60;;;;;;;17.90;63.18;99390.59;4391737;32;34004;-94
2021/08/27 04:30:12;;;;;;;6.62;4.50;;;;;;;17.84;63.31;99385.59;4384717;32;33026;-95
2021/08/27 04:32:56;;;;;;;7.90;4.55;;;;;;;18.03;62.15;99384.00;4384650;32;33761;-95
2021/08/27 04:35:52;;;;;;;8.77;4.85;;;;;;;17.97;62.74;99376.31;4416307;32;34880;-96
2021/08/27 04:38:32;;;;;;;6.85;4.40;;;;;;;17.92;62.15;99370.41;4365227;32;33433;-95
2021/08/27 04:41:25;;;;;;;9.02;5.28;;;;;;;17.94;61.80;99349.28;4401246;32;33425;-94
2021/08/27 04:44:05;;;;;;;7.82;4.72;;;;;;;17.86;62.52;99359.22;4358657;32;33685;-95
2021/08/27 04:46:59;;;;;;;11.00;4.55;;;;;;;17.94;62.58;99360.66;4391065;32;34489;-94
2021/08/27 04:49:43;;;;;;;10.77;5.35;;;;;;;17.78;63.25;99364.75;4401749;32;34101;-94
2021/08/27 04:52:38;;;;;;;10.52;5.53;;;;;;;17.85;63.03;99355.72;4385988;32;34100;-94
2021/08/27 04:55:18;;;;;;;6.53;4.80;;;;;;;18.01;62.79;99356.03;4401403;32;34242;-94
2021/08/27 04:58:13;;;;;;;8.18;5.00;;;;;;;17.82;63.09;99361.09;4374850;32;34244;-94
2021/08/27 05:00:54;;;;;;;8.32;4.93;;;;;;;17.89;63.13;99361.75;4400705;32;34554;-93
2021/08/27 05:03:43;;;;;;;7.10;4.07;;;;;;;17.83;62.74;99361.97;4395968;32;33764;-95
2021/08/27 05:06:23;;;;;;;6.62;4.70;;;;;;;17.90;62.19;99360.84;4364944;32;33066;-94
2021/08/27 05:09:22;;;;;;;7.35;4.72;;;;;;;17.63;63.45;99365.31;4361986;32;34224;-93
2021/08/27 05:12:05;;;;;;;7.00;4.82;;;;;;;17.77;63.09;99365.69;4363295;32;33890;-93
2021/08/27 05:15:06;;;;;;;5.32;4.18;;;;;;;17.73;63.40;99371.09;4387329;32;33225;-94
2021/08/27 05:17:49;;;;;;;5.47;4.28;;;;;;;17.70;63.51;99365.94;4412323;32;33503;-93
2021/08/27 05:20:37;;;;;;;6.85;4.18;;;;;;;17.67;63.71;99369.53;4392428;32;35494;-94
2021/08/27 05:23:05;;;;;;;6.07;4.28;;;;;;;17.74;63.22;99375.44;4391947;32;33732;-94
2021/08/27 05:25:59;;;;;;;5.50;3.80;;;;;;;17.95;62.92;99385.19;4389368;32;32742;-94
2021/08/27 05:28:35;;;;;;;7.07;4.15;;;;;;;17.87;63.12;99390.75;4390967;32;33478;-93
2021/08/27 05:31:27;;;;;;;7.97;4.62;;;;;;;17.97;62.74;99365.78;4389502;32;34840;-94
2021/08/27 05:33:59;;;;;;;5.80;4.50;;;;;;;17.99;62.85;99377.16;4404574;32;34646;-94
2021/08/27 05:36:43;;;;;;;7.30;4.72;;;;;;;18.10;62.52;99382.00;4375943;32;32330;-93
2021/08/27 05:39:11;;;;;;;5.75;4.62;;;;;;;18.04;62.60;99398.84;4391962;32;33411;-93
2021/08/27 05:42:19;;;;;;;5.70;4.10;;;;;;;18.15;62.30;99396.72;4400605;32;35532;-93
2021/08/27 05:45:09;;;;;;;6.87;4.03;;;;;;;18.04;62.11;99384.88;4390494;32;33499;-94
2021/08/27 05:47:38;;;;;;;6.25;4.72;;;;;;;17.95;62.70;99387.81;4393782;32;33060;-93
2021/08/27 05:50:06;;;;;;;7.43;4.93;;;;;;;18.12;62.35;99385.44;4419128;32;33231;-92
2021/08/27 05:52:34;;;;;;;5.50;4.07;;;;;;;17.94;62.02;99381.72;4394112;32;33611;-92
2021/08/27 05:55:04;;;;;;;5.15;4.03;;;;;;;18.02;61.93;99381.41;4406028;32;33149;-92
2021/08/27 05:57:32;;;;;;;5.60;4.12;;;;;;;17.81;62.66;99384.81;4369265;32;32914;-93
2021/08/27 06:00:09;;;;;;;7.50;4.60;;;;;;;18.09;61.99;99380.28;4417166;32;33464;-89
2021/08/27 06:02:38;;;;;;;7.75;4.85;;;;;;;18.03;62.29;99383.13;4409610;32;35109;-90
2021/08/27 06:05:06;;;;;;;6.55;3.75;;;;;;;18.11;62.40;99375.81;4412450;32;34039;-88
2021/08/27 06:07:34;;;;;;;5.97;4.25;;;;;;;18.04;65.63;99385.69;4415758;32;34277;-92
2021/08/27 06:10:02;;;;;;;7.45;5.25;;;;;;;18.18;63.28;99375.50;4419242;32;34273;-93
2021/08/27 06:12:31;;;;;;;6.50;4.90;;;;;;;18.52;60.97;99385.66;4406673;32;35499;-93
2021/08/27 06:14:58;;;;;;;5.82;4.30;;;;;;;18.51;60.97;99396.25;4381159;32;33504;-91
2021/08/27 06:17:27;;;;;;;8.00;5.25;;;;;;;18.76;60.47;99405.78;4393482;32;33447;-93
2021/08/27 06:19:54;;;;;;;8.85;5.55;;;;;;;18.69;60.70;99403.44;4393915;32;33052;-92
2021/08/27 06:22:23;;;;;;;8.45;5.68;;;;;;;18.67;60.71;99400.00;4393475;32;33846;-93
2021/08/27 06:24:51;;;;;;;7.80;5.87;;;;;;;18.68;61.00;99392.06;4394292;32;34226;-94
2021/08/27 06:27:19;;;;;;;9.27;6.10;;;;;;;18.73;60.40;99403.25;4406004;32;33573;-95
2021/08/27 06:29:47;;;;;;;7.00;5.93;;;;;;;18.74;60.17;99410.25;4381339;32;33917;-94
2021/08/27 06:32:15;;;;;;;8.40;6.20;;;;;;;18.74;60.17;99410.25;4418836;32;33732;-94
2021/08/27 06:34:43;;;;;;;6.97;5.40;;;;;;;18.72;59.83;99408.59;4405852;32;34129;-94
2021/08/27 06:37:13;;;;;;;10.57;6.50;;;;;;;18.64;60.91;99419.44;4369379;32;32537;-94
2021/08/27 06:40:04;;;;;;;6.65;5.30;;;;;;;18.59;61.06;99425.81;4383857;32;34105;-95
2021/08/27 06:42:49;;;;;;;8.10;5.72;;;;;;;18.74;60.29;99423.44;4404611;32;34826;-96
2021/08/27 06:45:45;;;;;;;7.75;5.37;;;;;;;18.56;61.11;99425.91;4403588;32;33468;-95
2021/08/27 06:48:26;;;;;;;9.27;6.18;;;;;;;18.58;61.48;99426.72;4379766;32;33029;-95
2021/08/27 06:51:09;;;;;;;7.85;6.07;;;;;;;18.64;61.29;99426.47;4381293;32;33606;-93
2021/08/27 06:53:37;;;;;;;9.57;6.20;;;;;;;18.36;62.03;99425.75;4393960;32;35404;-93
2021/08/27 06:56:42;;;;;;;9.00;5.97;;;;;;;18.66;61.01;99427.28;4357719;32;33844;-94
2021/08/27 06:59:11;;;;;;;10.00;5.37;;;;;;;18.66;61.32;99424.66;4353377;32;33483;-93
2021/08/27 07:01:43;;;;;;;;;;;;;;;18.79;61.24;99426.75;4348888;33;33680;-94
2021/08/27 07:04:31;;;;;;;8.70;6.68;;;;;;;18.69;61.47;99424.50;4337503;33;34260;-93
2021/08/27 07:07:15;;;;;;;10.40;6.50;;;;;;;18.61;61.54;99426.59;4348921;33;34153;-94
2021/08/27 07:09:43;;;;;;;9.82;6.15;;;;;;;18.47;61.69;99435.00;4324249;33;33272;-93
2021/08/27 07:12:15;;;;;;;13.57;6.05;;;;;;;18.61;61.23;99429.25;4373318;32;34336;-93
2021/08/27 07:15:08;;;;;;;9.68;6.20;;;;;;;18.69;60.89;99441.19;4346176;33;34178;-94
2021/08/27 07:17:45;;;;;;;8.75;6.05;;;;;;;18.57;61.47;99436.37;4348626;33;35555;-93
2021/08/27 07:20:14;;;;;;;7.87;6.03;;;;;;;18.76;60.95;99445.28;4349644;33;32961;-93
2021/08/27 07:22:46;;;;;;;9.13;6.62;;;;;;;18.91;60.78;99441.19;4336224;33;33255;-93
2021/08/27 07:25:15;;;;;;;9.48;6.65;;;;;;;18.99;60.98;99449.69;4324143;33;34731;-93
2021/08/27 07:27:53;;;;;;;7.95;6.07;;;;;;;19.04;60.85;99442.41;4325034;33;33921;-92
2021/08/27 07:30:22;;;;;;;7.43;6.05;;;;;;;19.14;59.59;99451.69;4361376;32;33847;-93
2021/08/27 07:33:11;;;;;;;5.50;4.85;;;;;;;19.19;59.65;99449.72;4350307;33;34500;-93
2021/08/27 07:35:39;;;;;;;10.65;6.10;;;;;;;19.50;58.82;99449.34;4360856;32;34888;-91
2021/08/27 07:38:07;;;;;;;6.32;5.12;;;;;;;19.49;59.06;99445.00;4360798;32;34411;-92
2021/08/27 07:40:44;;;;;;;6.28;4.97;;;;;;;19.42;58.76;99448.84;4346770;33;33984;-93
2021/08/27 07:43:20;;;;;;;7.20;5.03;;;;;;;19.47;58.43;99441.56;4348990;33;34024;-94
2021/08/27 07:46:13;;;;;;;7.12;4.85;;;;;;;19.49;58.68;99437.09;4362955;32;33952;-92
2021/08/27 07:48:44;;;;;;;5.90;4.85;;;;;;;20.06;57.43;99437.22;4360123;32;34228;-92
2021/08/27 07:51:13;;;;;;;6.75;4.62;;;;;;;20.00;57.13;99441.91;4340798;32;32953;-93
2021/08/27 07:53:41;;;;;;;6.47;4.45;;;;;;;20.22;57.29;99443.56;4375094;32;34725;-92
2021/08/27 07:56:09;;;;;;;7.37;4.75;;;;;;;20.20;56.45;99447.19;4347684;33;33658;-95
2021/08/27 07:59:18;;;;;;;7.20;4.15;;;;;;;20.04;56.86;99446.16;4357394;32;33686;-95
2021/08/27 08:02:00;;;;;;;8.10;4.62;;;;;;;20.29;56.55;99454.72;4385222;32;33034;-95
2021/08/27 08:04:42;;;;;;;9.40;5.10;;;;;;;20.32;56.54;99459.87;4373759;32;33573;-94
2021/08/27 08:07:43;;;;;;;8.43;4.03;;;;;;;20.20;56.03;99457.75;4390238;32;35665;-96
2021/08/27 08:10:11;;;;;;;5.57;4.18;;;;;;;20.55;54.34;99445.59;4380995;32;33654;-94
2021/08/27 08:12:39;;;;;;;5.30;3.87;;;;;;;20.64;54.12;99451.31;4392423;32;34273;-93
2021/08/27 08:15:07;;;;;;;7.35;4.05;;;;;;;20.81;54.70;99454.03;4380199;32;33811;-93
2021/08/27 08:17:35;;;;;;;6.50;3.95;;;;;;;20.96;53.66;99463.03;4380409;32;34114;-95
2021/08/27 08:20:43;;;;;;;4.70;3.75;;;;;;;21.09;53.91;99465.94;4385262;32;34311;-95
2021/08/27 08:23:23;;;;;;;5.90;3.70;;;;;;;20.97;52.10;99462.06;4401184;32;33609;-94
2021/08/27 08:25:52;;;;;;;6.30;3.35;;;;;;;21.05;51.92;99456.47;4417983;32;33115;-94
2021/08/27 08:28:21;;;;;;;7.05;3.35;;;;;;;21.03;50.62;99463.59;4392643;32;34038;-95
2021/08/27 08:31:22;;;;;;;5.07;3.28;;;;;;;21.00;52.22;99459.28;4376450;32;33241;-93
2021/08/27 08:33:52;;;;;;;3.65;2.42;;;;;;;21.13;51.02;99465.75;4378814;32;33048;-93
2021/08/27 08:36:52;;;;;;;4.07;2.90;;;;;;;21.20;50.27;99471.59;4386255;32;33328;-94
2021/08/27 08:39:20;;;;;;;4.57;2.58;;;;;;;21.04;50.80;99476.72;4377573;32;33874;-94
2021/08/27 08:42:28;;;;;;;3.28;2.25;;;;;;;21.15;50.27;99470.97;4354203;32;33361;-94
2021/08/27 08:44:55;;;;;;;4.25;2.65;;;;;;;21.06;50.44;99482.00;4359774;32;33799;-93
2021/08/27 08:47:27;;;;;;;3.37;2.80;;;;;;;21.07;50.48;99481.91;4353101;32;34353;-94
2021/08/27 08:49:55;;;;;;;4.35;2.22;;;;;;;20.86;50.75;99480.25;4347129;33;34982;-93
2021/08/27 08:52:24;;;;;;;4.07;2.55;;;;;;;20.91;50.61;99486.19;4347373;33;33914;-90
2021/08/27 08:54:53;;;;;;;4.80;2.50;;;;;;;21.03;50.22;99490.03;4359016;32;33104;-93
2021/08/27 08:57:21;;;;;;;4.32;2.05;;;;;;;21.13;49.04;99488.69;4347000;33;34237;-91
2021/08/27 08:59:51;;;;;;;4.45;2.53;;;;;;;21.13;48.95;99489.56;4359202;32;35402;-94
2021/08/27 09:02:22;;;;;;;;;;;;;;;21.08;49.72;99490.69;4359177;32;34143;-92
2021/08/27 09:04:49;;;;;;;5.37;2.92;;;;;;;20.92;49.42;99493.16;4359496;32;33015;-94
2021/08/27 09:07:17;;;;;;;5.00;2.97;;;;;;;20.92;49.45;99496.66;4347103;33;34824;-92
2021/08/27 09:09:50;;;;;;;4.57;2.58;;;;;;;20.71;49.12;99489.75;4359005;32;33946;-92
2021/08/27 09:12:24;;;;;;;3.40;2.03;;;;;;;20.45;49.33;99491.84;4346997;33;33606;-93
2021/08/27 09:15:14;;;;;;;3.25;2.40;;;;;;;20.50;50.28;99501.28;4344784;33;32940;-89
2021/08/27 09:17:45;;;;;;;3.72;2.37;;;;;;;20.62;50.14;99494.59;4358634;32;34512;-88
2021/08/27 09:20:20;;;;;;;3.28;2.47;;;;;;;20.76;49.73;99486.88;4348182;33;35571;-89
2021/08/27 09:22:56;;;;;;;7.15;3.05;;;;;;;20.68;51.44;99489.87;4360458;32;34448;-90
2021/08/27 09:25:27;;;;;;;5.43;3.12;;;;;;;20.76;50.44;99487.75;4349374;33;33482;-90
2021/08/27 09:28:08;;;;;;;5.78;3.00;;;;;;;20.58;50.21;99493.03;4348156;33;34416;-88
2021/08/27 09:30:54;;;;;;;3.22;2.30;;;;;;;20.42;50.36;99492.84;4348424;33;35383;-89
2021/08/27 09:33:24;;;;;;;3.60;2.10;;;;;;;20.46;50.12;99501.50;4348406;33;34366;-89
2021/08/27 09:36:01;;;;;;;4.75;2.87;;;;;;;20.26;49.69;99489.16;4360489;32;33663;-90
2021/08/27 09:38:37;;;;;;;7.05;3.22;;;;;;;20.19;50.34;99499.13;4372133;32;33471;-88
2021/08/27 09:41:07;;;;;;;5.57;3.83;;;;;;;20.11;50.92;99497.75;4380080;32;34164;-89
2021/08/27 09:43:46;;;;;;;5.12;4.25;;;;;;;20.01;50.68;99509.62;4333327;32;35052;-89
2021/08/27 09:46:37;;;;;;;5.53;3.90;;;;;;;20.02;51.26;99503.41;4341025;32;33535;-91
2021/08/27 09:49:36;;;;;;;6.60;3.72;;;;;;;20.27;49.88;99504.09;4350280;32;34299;-90
2021/08/27 09:52:09;;;;;;;12.77;4.90;;;;;;;20.45;50.29;99492.72;4348653;32;33720;-90
2021/08/27 09:54:39;;;;;;;5.10;3.20;;;;;;;20.67;50.28;99493.47;4336552;33;34272;-90
2021/08/27 09:57:08;;;;;;;4.30;2.75;;;;;;;20.87;50.52;99490.72;4323942;33;33043;-89
2021/08/27 09:59:39;;;;;;;4.80;2.70;;;;;;;21.01;49.90;99489.25;4337313;32;34725;-89
2021/08/27 10:02:10;;;;;;;4.28;2.60;;;;;;;21.05;50.21;99498.78;4341544;33;34140;-89
2021/08/27 10:04:54;;;;;;;5.43;2.15;;;;;;;21.10;49.20;99496.78;4345780;32;33751;-90
2021/08/27 10:07:27;;;;;;;5.05;2.20;;;;;;;21.32;48.74;99476.31;4354452;33;35048;-91
2021/08/27 10:09:58;;;;;;;2.67;2.10;;;;;;;21.39;47.25;99483.00;4369547;32;34570;-89
2021/08/27 10:12:27;;;;;;;3.33;2.33;;;;;;;20.86;47.32;99489.03;4326899;32;34971;-89
2021/08/27 10:14:56;;;;;;;3.67;1.95;;;;;;;21.05;47.86;99496.13;4351462;32;34310;-88
2021/08/27 10:17:25;;;;;;;3.78;2.20;;;;;;;21.26;48.60;99500.38;4360217;32;33785;-86
2021/08/27 10:19:52;;;;;;;1.90;1.33;;;;;;;21.29;48.58;99498.47;4347670;32;32613;-89
2021/08/27 10:22:20;;;;;;;3.05;1.65;;;;;;;21.49;45.62;99487.75;4353743;32;34170;-86
2021/08/27 10:24:49;;;;;;;2.70;2.05;;;;;;;21.47;47.60;99488.75;4337160;32;34086;-89
2021/08/27 10:27:17;;;;;;;4.32;1.55;;;;;;;21.49;47.73;99495.69;4339618;33;33450;-88
2021/08/27 10:29:50;;;;;;;2.78;1.50;;;;;;;21.70;45.76;99496.44;4336686;32;34276;-89
2021/08/27 10:32:46;;;;;;;1.95;1.30;;;;;;;21.70;45.99;99491.13;4338910;33;35479;-89
2021/08/27 10:35:39;;;;;;;2.87;1.77;;;;;;;21.80;46.71;99489.72;4354823;32;34870;-89
2021/08/27 10:38:07;;;;;;;2.30;1.60;;;;;;;22.15;45.31;99490.63;4334806;33;32424;-90
2021/08/27 10:40:39;;;;;;;2.72;2.05;;;;;;;21.89;45.89;99489.31;4341657;32;34839;-90
2021/08/27 10:43:07;;;;;;;1.95;1.42;;;;;;;21.79;45.32;99498.63;4374976;32;34652;-94
2021/08/27 10:45:41;;;;;;;2.80;1.23;;;;;;;21.60;47.14;99492.53;4350096;32;34465;-92
2021/08/27 10:48:24;;;;;;;2.22;1.25;;;;;;;21.69;45.23;99494.72;4362581;32;33664;-92
2021/08/27 10:50:54;;;;;;;2.05;1.40;;;;;;;21.71;45.22;99499.91;4350534;32;34724;-89
2021/08/27 10:53:33;;;;;;;2.17;1.30;;;;;;;21.45;45.57;99499.44;4362895;32;33788;-90
2021/08/27 10:56:02;;;;;;;4.60;1.65;;;;;;;21.42;46.00;99496.06;4339164;32;33868;-89
2021/08/27 10:58:47;;;;;;;3.17;1.62;;;;;;;21.65;45.93;99505.53;4374174;32;33908;-90
2021/08/27 11:01:40;;;;;;;1.87;1.00;;;;;;;21.44;46.25;99503.00;4337860;32;33268;-91
2021/08/27 11:04:28;;;;;;;2.65;1.27;;;;;;;21.66;46.75;99508.09;4350473;32;33758;-89
2021/08/27 11:06:58;;;;;;;4.37;2.40;;;;;;;21.85;45.25;99511.56;4350351;32;35093;-89
2021/08/27 11:09:27;;;;;;;5.57;1.70;;;;;;;21.73;46.74;99511.31;4350359;32;33529;-90
2021/08/27 11:12:16;;;;;;;2.20;1.20;;;;;;;21.74;46.59;99516.50;4357769;32;33855;-90
2021/08/27 11:14:46;;;;;;;2.50;1.12;;;;;;;21.67;45.56;99514.25;4349479;32;34688;-90
2021/08/27 11:17:15;;;;;;;3.53;1.08;;;;;;;21.59;44.97;99511.97;4362833;32;35467;-89
2021/08/27 11:19:49;;;;;;;1.83;0.77;;;;;;;21.40;45.07;99506.72;4342766;32;33439;-90
2021/08/27 11:22:24;;;;;;;0.98;0.68;;;;;;;21.42;44.22;99504.00;4336658;32;35137;-90
2021/08/27 11:25:11;;;;;;;1.12;0.60;;;;;;;21.55;43.90;99499.84;4362553;32;34235;-90
2021/08/27 11:28:06;;;;;;;4.32;0.68;;;;;;;21.55;43.64;99489.25;4362277;32;34265;-89
2021/08/27 11:30:34;;;;;;;0.88;0.50;;;;;;;21.67;44.38;99479.84;4352275;32;33088;-90
2021/08/27 11:33:03;;;;;;;1.55;0.70;;;;;;;21.51;45.80;99495.63;4349753;32;33444;-90
2021/08/27 11:35:45;;;;;;;1.17;0.68;;;;;;;21.74;43.61;99487.41;4362552;32;35585;-88
2021/08/27 11:38:13;;;;;;;0.50;0.40;;;;;;;21.75;43.20;99485.63;4349660;32;34690;-89
2021/08/27 11:40:41;;;;;;;2.15;0.95;;;;;;;21.53;42.87;99486.69;4349569;32;34321;-90
2021/08/27 11:43:08;;;;;;;3.05;1.33;;;;;;;21.75;41.45;99475.84;4360712;32;34070;-89
2021/08/27 11:45:36;;;;;;;1.35;0.90;;;;;;;21.74;43.27;99476.81;4349977;32;34423;-90
2021/08/27 11:48:07;;;;;;;2.33;0.70;;;;;;;22.00;43.21;99476.38;4345783;32;34896;-88
2021/08/27 11:50:39;;;;;;;2.78;1.58;;;;;;;22.22;42.74;99479.62;4362070;32;35502;-91
2021/08/27 11:53:08;;;;;;;1.73;0.85;;;;;;;22.40;42.00;99475.13;4337366;32;34292;-90
2021/08/27 11:55:44;;;;;;;3.25;0.88;;;;;;;22.58;42.24;99471.47;4350009;32;34081;-90
2021/08/27 11:58:12;;;;;;;1.25;0.60;;;;;;;22.66;42.58;99476.41;4349653;32;33405;-92
2021/08/27 12:00:47;;;;;;;1.83;0.68;;;;;;;22.86;40.13;99482.34;4350003;32;32711;-92
2021/08/27 12:03:17;;;;;;;3.42;0.93;;;;;;;22.99;41.27;99485.16;4349777;32;33210;-90
2021/08/27 12:05:53;;;;;;;2.70;1.27;;;;;;;23.11;40.94;99489.78;4350166;32;34379;-90
2021/08/27 12:08:26;;;;;;;4.05;1.10;;;;;;;22.90;40.29;99483.00;4361629;32;33891;-90
2021/08/27 12:10:54;;;;;;;1.30;0.73;;;;;;;22.81;40.17;99481.75;4349871;32;33539;-89
2021/08/27 12:13:25;;;;;;;0.80;0.50;;;;;;;23.20;40.32;99483.94;4349535;32;34383;-90
2021/08/27 12:15:53;;;;;;;1.70;0.73;;;;;;;23.31;39.53;99484.22;4349656;32;35088;-88
2021/08/27 12:18:20;;;;;;;1.75;0.68;;;;;;;23.61;39.50;99483.41;4373601;32;34409;-89
2021/08/27 12:20:50;;;;;;;1.15;0.57;;;;;;;23.60;39.60;99476.41;4354352;32;32117;-89
2021/08/27 12:23:22;;;;;;;2.45;0.70;;;;;;;23.73;40.25;99480.91;4349750;32;34311;-88
2021/08/27 12:26:12;;;;;;;2.50;0.85;;;;;;;23.35;38.49;99477.81;4361833;32;33842;-89
2021/08/27 12:28:43;;;;;;;1.33;0.57;;;;;;;23.53;38.70;99481.22;4351901;32;35515;-89
2021/08/27 12:31:11;;;;;;;0.68;0.50;;;;;;;23.68;39.19;99482.13;4337050;32;32756;-89
2021/08/27 12:33:58;;;;;;;2.25;0.50;;;;;;;23.88;38.27;99480.00;4351133;32;34422;-90
2021/08/27 12:36:26;;;;;;;0.70;0.40;;;;;;;23.58;39.17;99478.28;4361648;32;35153;-89
2021/08/27 12:38:54;;;;;;;0.80;0.50;;;;;;;23.33;38.69;99473.50;4349094;32;33820;-88